createdAt,value
2022-12-08T00:01:27.368Z,94104.28
2022-12-08T00:03:53.981Z,94110.31
2022-12-08T00:06:20.457Z,94100.69
2022-12-08T00:08:46.899Z,94104.13
2022-12-08T00:11:13.299Z,94103.19
2022-12-08T00:13:39.727Z,94097.78
2022-12-08T00:16:06.216Z,94100.25
2022-12-08T00:18:32.778Z,94090.94
2022-12-08T00:20:59.272Z,94090.38
2022-12-08T00:23:26.620Z,94082.13
2022-12-08T00:25:53.056Z,94075.03
2022-12-08T00:28:19.467Z,94074.19
2022-12-08T00:30:45.903Z,94075.03
2022-12-08T00:33:12.333Z,94070.06
2022-12-08T00:35:42.928Z,94069.94
2022-12-08T00:38:09.734Z,94073.50
2022-12-08T00:40:36.131Z,94064.84
2022-12-08T00:43:02.540Z,94061.28
2022-12-08T00:45:29.084Z,94063.75
2022-12-08T00:47:55.620Z,94063.44
2022-12-08T00:50:22.025Z,94063.63
2022-12-08T00:52:48.470Z,94054.00
2022-12-08T00:55:15.411Z,94056.44
2022-12-08T00:57:42.016Z,94057.41
2022-12-08T01:00:08.503Z,94064.44
2022-12-08T01:02:34.929Z,94066.06
2022-12-08T01:05:01.484Z,94057.13
2022-12-08T01:07:27.899Z,94053.38
2022-12-08T01:09:54.303Z,94049.69
2022-12-08T01:12:20.781Z,94055.72
2022-12-08T01:14:47.249Z,94056.53
2022-12-08T01:17:13.756Z,94058.47
2022-12-08T01:19:40.246Z,94056.41
2022-12-08T01:22:06.646Z,94059.16
2022-12-08T01:24:33.062Z,94055.28
2022-12-08T01:26:59.493Z,94058.34
2022-12-08T01:29:25.946Z,94053.13
2022-12-08T01:31:52.400Z,94047.59
2022-12-08T01:34:18.889Z,94045.66
2022-12-08T01:36:45.301Z,94041.94
2022-12-08T01:39:11.764Z,94040.81
2022-12-08T01:41:38.603Z,94039.84
2022-12-08T01:44:05.196Z,94041.38
2022-12-08T01:46:31.702Z,94039.53
2022-12-08T01:48:58.166Z,94046.41
2022-12-08T01:51:24.594Z,94038.59
2022-12-08T01:53:51.036Z,94037.75
2022-12-08T01:56:17.461Z,94030.91
2022-12-08T01:58:43.867Z,94041.19
2022-12-08T02:01:10.393Z,94035.31
2022-12-08T02:03:36.867Z,94031.06
2022-12-08T02:06:03.261Z,94025.69
2022-12-08T02:08:29.709Z,94028.31
2022-12-08T02:10:56.183Z,94016.03
2022-12-08T02:13:22.605Z,94015.88
2022-12-08T02:15:49.082Z,94014.09
2022-12-08T02:18:15.562Z,94011.63
2022-12-08T02:20:41.972Z,94005.59
2022-12-08T02:23:08.396Z,94004.78
2022-12-08T02:25:34.928Z,94001.19
2022-12-08T02:28:01.348Z,94002.19
2022-12-08T02:30:27.836Z,94004.09
2022-12-08T02:32:54.280Z,93996.41
2022-12-08T02:35:20.792Z,93994.75
2022-12-08T02:37:47.238Z,93992.00
2022-12-08T02:40:13.679Z,93985.97
2022-12-08T02:42:40.138Z,93985.81
2022-12-08T02:45:06.595Z,93984.84
2022-12-08T02:47:33.038Z,93977.84
2022-12-08T02:49:59.489Z,93980.13
2022-12-08T02:52:26.023Z,93978.66
2022-12-08T02:54:52.490Z,93977.03
2022-12-08T02:57:18.926Z,93976.19
2022-12-08T02:59:45.357Z,93968.81
2022-12-08T03:02:11.839Z,93961.09
2022-12-08T03:04:38.304Z,93965.50
2022-12-08T03:07:04.737Z,93955.34
2022-12-08T03:09:31.188Z,93952.06
2022-12-08T03:11:57.658Z,93949.97
2022-12-08T03:14:24.087Z,93953.56
2022-12-08T03:16:50.524Z,93947.00
2022-12-08T03:19:16.962Z,93949.22
2022-12-08T03:21:43.451Z,93949.38
2022-12-08T03:24:09.905Z,93944.00
2022-12-08T03:26:36.330Z,93952.53
2022-12-08T03:29:02.768Z,93944.69
2022-12-08T03:31:29.260Z,93943.56
2022-12-08T03:33:55.735Z,93940.81
2022-12-08T03:36:22.374Z,93942.13
2022-12-08T03:38:48.981Z,93933.34
2022-12-08T03:41:15.417Z,93939.25
2022-12-08T03:43:41.847Z,93935.50
2022-12-08T03:46:08.315Z,93936.88
2022-12-08T03:48:35.336Z,93929.16
2022-12-08T03:51:01.779Z,93933.06
2022-12-08T03:53:28.207Z,93927.53
2022-12-08T03:55:54.627Z,93928.63
2022-12-08T03:58:21.071Z,93916.38
2022-12-08T04:00:47.510Z,93927.16
2022-12-08T04:03:14.946Z,93922.88
2022-12-08T04:05:42.499Z,93918.34
2022-12-08T04:08:09.022Z,93918.50
2022-12-08T04:10:35.514Z,93916.56
2022-12-08T04:13:01.916Z,93918.19
2022-12-08T04:15:28.320Z,93909.38
2022-12-08T04:17:54.760Z,93906.75
2022-12-08T04:20:21.192Z,93904.31
2022-12-08T04:22:47.591Z,93900.88
2022-12-08T04:25:14.146Z,93903.88
2022-12-08T04:27:40.585Z,93900.44
2022-12-08T04:30:07.258Z,93908.28
2022-12-08T04:32:33.930Z,93896.69
2022-12-08T04:35:00.365Z,93894.84
2022-12-08T04:37:26.801Z,93898.69
2022-12-08T04:39:53.228Z,93889.06
2022-12-08T04:42:19.642Z,93888.13
2022-12-08T04:44:46.077Z,93887.16
2022-12-08T04:47:12.551Z,93883.25
2022-12-08T04:49:39.038Z,93889.03
2022-12-08T04:52:05.481Z,93887.50
2022-12-08T04:54:31.906Z,93887.50
2022-12-08T04:56:58.328Z,93889.44
2022-12-08T04:59:24.772Z,93888.78
2022-12-08T05:01:51.334Z,93887.00
2022-12-08T05:04:17.840Z,93894.66
2022-12-08T05:06:44.282Z,93887.50
2022-12-08T05:09:10.703Z,93892.66
2022-12-08T05:11:37.143Z,93885.13
2022-12-08T05:14:03.582Z,93885.72
2022-12-08T05:16:30.106Z,93878.34
2022-12-08T05:18:56.625Z,93879.75
2022-12-08T05:21:23.038Z,93876.22
2022-12-08T05:23:49.499Z,93876.31
2022-12-08T05:26:15.937Z,93866.78
2022-12-08T05:28:43.598Z,93869.28
2022-12-08T05:31:10.424Z,93869.22
2022-12-08T05:33:36.918Z,93867.19
2022-12-08T05:36:03.444Z,93868.28
2022-12-08T05:38:29.897Z,93865.16
2022-12-08T05:40:56.332Z,93862.16
2022-12-08T05:43:22.799Z,93868.63
2022-12-08T05:45:49.279Z,93862.19
2022-12-08T05:48:15.798Z,93864.28
2022-12-08T05:50:42.924Z,93864.03
2022-12-08T05:53:09.534Z,93868.03
2022-12-08T05:55:36.120Z,93863.25
2022-12-08T05:58:07.837Z,93864.22
2022-12-08T06:00:35.323Z,93862.75
2022-12-08T06:03:01.789Z,93870.56
2022-12-08T06:05:28.363Z,93875.91
2022-12-08T06:07:54.954Z,93869.88
2022-12-08T06:10:21.429Z,93872.63
2022-12-08T06:12:47.830Z,93870.41
2022-12-08T06:15:14.314Z,93871.78
2022-12-08T06:17:40.749Z,93870.84
2022-12-08T06:20:07.449Z,93873.44
2022-12-08T06:22:34.147Z,93870.69
2022-12-08T06:25:00.595Z,93873.81
2022-12-08T06:27:27.019Z,93868.63
2022-12-08T06:29:53.482Z,93874.53
2022-12-08T06:32:24.343Z,93867.38
2022-12-08T06:34:53.597Z,93874.09
2022-12-08T06:37:20.023Z,93871.34
2022-12-08T06:39:46.451Z,93871.84
2022-12-08T06:42:12.873Z,93865.38
2022-12-08T06:44:39.322Z,93871.41
2022-12-08T06:47:05.791Z,93871.66
2022-12-08T06:49:32.235Z,93871.28
2022-12-08T06:51:58.727Z,93873.19
2022-12-08T06:54:25.158Z,93868.53
2022-12-08T06:56:51.598Z,93877.19
2022-12-08T06:59:18.026Z,93871.53
2022-12-08T07:01:44.523Z,93864.81
2022-12-08T07:04:11.026Z,93868.25
2022-12-08T07:06:37.477Z,93864.22
2022-12-08T07:09:03.964Z,93868.53
2022-12-08T07:11:30.375Z,93870.91
2022-12-08T07:13:56.839Z,93865.69
2022-12-08T07:16:23.423Z,93868.69
2022-12-08T07:18:49.898Z,93878.00
2022-12-08T07:21:16.387Z,93871.41
2022-12-08T07:23:42.800Z,93874.56
2022-12-08T07:26:09.255Z,93875.25
2022-12-08T07:28:35.780Z,93873.19
2022-12-08T07:31:02.261Z,93871.09
2022-12-08T07:33:28.747Z,93875.03
2022-12-08T07:35:55.172Z,93880.13
2022-12-08T07:38:21.721Z,93873.81
2022-12-08T07:40:48.133Z,93866.63
2022-12-08T07:43:14.545Z,93865.41
2022-12-08T07:45:40.991Z,93869.50
2022-12-08T07:48:08.540Z,93868.22
2022-12-08T07:50:35.139Z,93866.16
2022-12-08T07:53:02.724Z,93869.63
2022-12-08T07:55:29.314Z,93868.84
2022-12-08T07:57:55.927Z,93860.47
2022-12-08T08:00:22.530Z,93856.19
2022-12-08T08:02:49.044Z,93861.13
2022-12-08T08:05:15.535Z,93865.09
2022-12-08T08:07:42.089Z,93854.22
2022-12-08T08:10:08.627Z,93853.09
2022-12-08T08:12:35.085Z,93850.88
2022-12-08T08:15:01.613Z,93847.97
2022-12-08T08:17:28.275Z,93845.22
2022-12-08T08:19:55.262Z,93850.56
2022-12-08T11:49:41.296Z,93682.81
2022-12-08T11:52:08.770Z,93678.91
2022-12-08T11:54:35.427Z,93676.44
2022-12-08T11:57:01.904Z,93682.97
2022-12-08T11:59:28.319Z,93673.59
2022-12-08T12:01:54.826Z,93670.34
2022-12-08T12:04:21.358Z,93667.53
2022-12-08T12:06:54.642Z,93661.66
2022-12-08T12:09:21.912Z,93662.47
2022-12-08T12:11:48.301Z,93657.88
2022-12-08T12:14:14.724Z,93652.44
2022-12-08T12:16:41.243Z,93653.28
2022-12-08T12:19:07.722Z,93656.03
2022-12-08T12:21:34.190Z,93649.63
2022-12-08T12:24:01.238Z,93641.56
2022-12-08T12:26:27.878Z,93642.41
2022-12-08T12:28:54.542Z,93645.69
2022-12-08T12:31:21.188Z,93636.97
2022-12-08T12:33:47.852Z,93636.50
2022-12-08T12:36:14.482Z,93638.66
2022-12-08T12:38:41.115Z,93634.69
2022-12-08T12:41:07.769Z,93625.38
2022-12-08T12:46:19.158Z,93630.63
2022-12-08T12:48:46.743Z,93618.78
2022-12-08T12:51:13.342Z,93619.25
2022-12-08T12:53:40.917Z,93618.50
2022-12-08T12:56:09.539Z,93621.34
2022-12-08T12:58:37.118Z,93620.69
2022-12-08T13:01:03.578Z,93613.63
2022-12-08T13:03:30.061Z,93617.91
2022-12-08T13:05:56.517Z,93615.56
2022-12-08T13:08:23.061Z,93611.75
2022-12-08T13:10:49.584Z,93598.84
2022-12-08T13:13:16.006Z,93599.19
2022-12-08T13:15:42.487Z,93597.72
2022-12-08T13:18:09.829Z,93594.00
2022-12-08T13:20:37.417Z,93586.16
2022-12-08T13:23:05.014Z,93586.50
2022-12-08T13:25:36.651Z,93590.13
2022-12-08T13:28:04.358Z,93591.41
2022-12-08T13:35:39.911Z,93594.38
2022-12-08T13:38:06.785Z,93596.47
2022-12-08T13:40:34.378Z,93606.97
2022-12-08T13:43:01.994Z,93592.53
2022-12-08T13:46:04.342Z,93579.75
2022-12-08T13:48:35.575Z,93583.88
2022-12-08T13:54:51.850Z,93585.91
2022-12-08T13:57:02.701Z,93581.88
2022-12-08T13:59:22.936Z,93576.47
2022-12-08T14:01:49.611Z,93573.72
2022-12-08T14:07:03.808Z,93565.88
2022-12-08T14:09:30.433Z,93568.50
2022-12-08T14:11:57.998Z,93572.28
2022-12-08T14:14:53.689Z,93570.50
2022-12-08T14:17:11.260Z,93565.59
2022-12-08T14:19:38.843Z,93567.25
2022-12-08T14:22:07.952Z,93565.97
2022-12-08T14:24:36.037Z,93564.19
2022-12-08T14:27:03.638Z,93567.97
2022-12-08T14:29:32.855Z,93573.88
2022-12-08T14:31:59.831Z,93569.28
2022-12-08T14:34:28.421Z,93566.50
2022-12-08T14:36:54.918Z,93559.81
2022-12-08T14:39:21.737Z,93564.09
2022-12-08T14:41:48.187Z,93553.97
2022-12-08T14:44:14.656Z,93552.81
2022-12-08T14:46:41.099Z,93542.81
2022-12-08T14:49:07.643Z,93547.56
2022-12-08T14:51:34.571Z,93542.84
2022-12-08T14:54:02.208Z,93546.28
2022-12-08T14:56:31.202Z,93544.81
2022-12-08T14:58:59.356Z,93542.19
2022-12-08T15:01:25.968Z,93544.78
2022-12-08T15:03:53.557Z,93536.13
2022-12-08T15:06:22.930Z,93544.63
2022-12-08T15:08:49.754Z,93542.81
2022-12-08T15:11:16.654Z,93535.94
2022-12-08T15:13:43.970Z,93540.34
2022-12-08T15:16:11.635Z,93547.34
2022-12-08T15:18:39.181Z,93548.94
2022-12-08T15:21:06.769Z,93555.81
2022-12-08T15:23:34.360Z,93552.19
2022-12-08T15:26:01.938Z,93553.94
2022-12-08T15:28:30.366Z,93548.84
2022-12-08T15:30:58.238Z,93543.78
2022-12-08T15:33:25.742Z,93545.06
2022-12-08T15:35:52.427Z,93536.38
2022-12-08T15:38:19.921Z,93546.47
2022-12-08T15:40:46.520Z,93538.78
2022-12-08T15:43:14.140Z,93552.69
2022-12-08T15:45:54.856Z,93537.47
2022-12-08T15:48:25.386Z,93541.31
2022-12-08T15:50:51.987Z,93536.34
2022-12-08T15:53:19.574Z,93531.75
2022-12-08T15:56:03.849Z,93529.16
2022-12-08T16:01:19.558Z,93525.84
2022-12-08T16:09:21.643Z,93519.28
2022-12-08T16:12:06.039Z,93519.94
2022-12-08T16:17:20.420Z,93528.56
2022-12-08T16:19:48.010Z,93527.19
2022-12-08T16:25:17.641Z,93530.28
2022-12-08T16:28:12.289Z,93533.84
2022-12-08T16:30:32.930Z,93533.03
2022-12-08T16:32:59.457Z,93532.22
2022-12-08T16:35:25.940Z,93528.63
2022-12-08T16:37:52.389Z,93526.69
2022-12-08T16:40:18.862Z,93534.38
2022-12-08T16:42:45.589Z,93530.94
2022-12-08T16:45:13.153Z,93536.16
2022-12-08T16:47:39.775Z,93529.97
2022-12-08T16:50:06.219Z,93529.19
2022-12-08T16:52:32.682Z,93518.56
2022-12-08T16:54:59.182Z,93517.91
2022-12-08T16:57:26.220Z,93523.94
2022-12-08T16:59:52.854Z,93521.16
2022-12-08T17:02:21.976Z,93513.03
2022-12-08T17:04:49.108Z,93524.31
2022-12-08T17:07:16.685Z,93520.88
2022-12-08T17:09:43.542Z,93525.13
2022-12-08T17:12:10.032Z,93526.22
2022-12-08T17:14:36.447Z,93522.31
2022-12-08T17:17:03.429Z,93525.72
2022-12-08T17:19:30.701Z,93521.47
2022-12-08T17:21:58.306Z,93521.63
2022-12-08T17:24:25.889Z,93529.63
2022-12-08T17:26:52.478Z,93526.47
2022-12-08T17:29:19.085Z,93530.50
2022-12-08T17:31:45.700Z,93529.34
2022-12-08T17:34:13.285Z,93528.00
2022-12-08T17:36:40.854Z,93528.84
2022-12-08T17:39:07.452Z,93520.69
2022-12-08T17:41:34.030Z,93527.25
2022-12-08T17:44:01.657Z,93524.03
2022-12-08T17:46:29.289Z,93517.56
2022-12-08T17:48:56.189Z,93527.53
2022-12-08T17:51:23.418Z,93512.91
2022-12-08T17:53:51.018Z,93518.31
2022-12-08T17:56:18.629Z,93516.06
2022-12-08T17:58:49.855Z,93520.81
2022-12-08T18:01:20.681Z,93512.53
2022-12-08T18:03:47.248Z,93515.97
2022-12-08T18:06:14.002Z,93515.53
2022-12-08T18:08:40.468Z,93514.09
2022-12-08T18:11:07.188Z,93516.09
2022-12-08T18:13:34.793Z,93515.28
2022-12-08T18:16:03.398Z,93515.00
2022-12-08T18:18:29.971Z,93516.31
2022-12-08T18:20:56.457Z,93516.97
2022-12-08T18:23:23.176Z,93516.78
2022-12-08T18:25:50.864Z,93516.66
2022-12-08T18:28:18.365Z,93522.34
2022-12-08T18:30:46.032Z,93513.56
2022-12-08T18:33:13.554Z,93514.22
2022-12-08T18:35:41.140Z,93512.94
2022-12-08T18:38:07.732Z,93501.38
2022-12-08T18:40:34.329Z,93503.50
2022-12-08T18:43:00.931Z,93505.97
2022-12-08T18:45:27.544Z,93505.78
2022-12-08T18:47:54.129Z,93503.84
2022-12-08T18:50:20.772Z,93503.50
2022-12-08T18:52:48.315Z,93495.38
2022-12-08T18:55:14.977Z,93496.03
2022-12-08T18:57:42.571Z,93494.25
2022-12-08T19:00:09.435Z,93493.09
2022-12-08T19:02:36.798Z,93498.47
2022-12-08T19:05:04.011Z,93494.56
2022-12-08T19:07:30.449Z,93490.97
2022-12-08T19:09:57.422Z,93490.00
2022-12-08T19:12:23.909Z,93490.81
2022-12-08T19:14:50.338Z,93486.09
2022-12-08T19:17:16.813Z,93499.47
2022-12-08T19:19:43.291Z,93486.41
2022-12-08T19:22:10.143Z,93489.84
2022-12-08T19:24:36.611Z,93486.09
2022-12-08T19:27:03.686Z,93483.31
2022-12-08T19:29:30.731Z,93476.94
2022-12-08T19:31:57.859Z,93466.81
2022-12-08T19:34:25.428Z,93470.56
2022-12-08T19:36:52.048Z,93470.13
2022-12-08T19:39:21.029Z,93469.94
2022-12-08T19:41:49.287Z,93475.47
2022-12-08T19:44:16.884Z,93483.16
2022-12-08T19:46:44.603Z,93482.19
2022-12-08T19:49:11.939Z,93485.78
2022-12-08T19:51:39.693Z,93480.41
2022-12-08T19:54:07.322Z,93472.72
2022-12-08T19:56:33.935Z,93478.09
2022-12-08T19:59:02.522Z,93476.50
2022-12-08T20:01:30.205Z,93474.19
2022-12-08T20:03:57.732Z,93475.97
2022-12-08T20:06:24.312Z,93477.97
2022-12-08T20:08:52.025Z,93488.72
2022-12-08T20:11:19.508Z,93486.75
2022-12-08T20:13:46.117Z,93486.75
2022-12-08T20:16:12.689Z,93475.97
2022-12-08T20:18:39.388Z,93478.44
2022-12-08T20:21:08.342Z,93480.22
2022-12-08T20:23:37.783Z,93472.53
2022-12-08T20:26:05.348Z,93471.72
2022-12-08T20:28:32.820Z,93467.97
2022-12-08T20:30:59.504Z,93464.72
2022-12-08T20:33:27.052Z,93469.94
2022-12-08T20:35:58.825Z,93455.72
2022-12-08T20:38:26.244Z,93459.81
2022-12-08T20:40:52.869Z,93459.47
2022-12-08T20:43:20.468Z,93454.75
2022-12-08T20:45:48.011Z,93448.84
2022-12-08T20:48:15.675Z,93447.56
2022-12-08T20:50:43.232Z,93443.81
2022-12-08T20:53:09.920Z,93432.22
2022-12-08T20:55:37.682Z,93424.38
2022-12-08T20:58:05.249Z,93434.66
2022-12-08T21:00:32.850Z,93424.22
2022-12-08T21:03:00.808Z,93428.31
2022-12-08T21:05:28.259Z,93432.72
2022-12-08T21:07:55.855Z,93424.69
2022-12-08T21:10:23.445Z,93432.22
2022-12-08T21:12:50.365Z,93432.84
2022-12-08T21:15:17.642Z,93432.56
2022-12-08T21:17:45.255Z,93434.19
2022-12-08T21:20:12.945Z,93433.69
2022-12-08T21:22:40.551Z,93430.09
2022-12-08T21:25:08.217Z,93421.59
2022-12-08T21:27:35.768Z,93415.22
2022-12-08T21:30:03.745Z,93412.28
2022-12-08T21:32:31.092Z,93416.69
2022-12-08T21:34:58.667Z,93411.16
2022-12-08T21:37:26.157Z,93416.72
2022-12-08T21:39:52.856Z,93416.88
2022-12-08T21:42:22.715Z,93436.63
2022-12-08T21:44:50.234Z,93442.69
2022-12-08T21:47:17.781Z,93430.44
2022-12-08T21:49:45.328Z,93439.91
2022-12-08T21:52:12.981Z,93443.97
2022-12-08T21:54:40.569Z,93449.69
2022-12-08T21:57:09.309Z,93452.97
2022-12-08T21:59:36.889Z,93459.00
2022-12-08T22:02:04.522Z,93464.91
2022-12-08T22:04:32.184Z,93459.66
2022-12-08T22:06:59.662Z,93462.28
2022-12-08T22:09:26.323Z,93459.16
2022-12-08T22:11:55.559Z,93455.91
2022-12-08T22:14:22.529Z,93458.34
2022-12-08T22:16:49.345Z,93451.63
2022-12-08T22:19:16.756Z,93454.75
2022-12-08T22:21:43.249Z,93446.59
2022-12-08T22:24:09.935Z,93449.03
2022-12-08T22:26:36.744Z,93451.31
2022-12-08T22:29:04.191Z,93447.88
2022-12-08T22:31:30.858Z,93443.63
2022-12-08T22:33:58.393Z,93433.34
2022-12-08T22:36:25.062Z,93432.03
2022-12-08T22:38:52.862Z,93435.31
2022-12-08T22:41:20.247Z,93438.41
2022-12-08T22:43:47.903Z,93425.19
2022-12-08T22:46:15.547Z,93416.06
2022-12-08T22:48:43.205Z,93412.94
2022-12-08T22:51:10.685Z,93413.13
2022-12-08T22:53:38.192Z,93417.53
2022-12-08T22:56:05.834Z,93411.16
2022-12-08T22:58:32.442Z,93409.84
2022-12-08T23:01:00.038Z,93413.91
2022-12-08T23:03:26.647Z,93408.53
2022-12-08T23:05:53.149Z,93403.16
2022-12-08T23:08:20.924Z,93408.84
2022-12-08T23:10:48.384Z,93405.25
2022-12-08T23:13:14.951Z,93407.41
2022-12-08T23:15:42.621Z,93410.31
2022-12-08T23:18:10.320Z,93413.91
2022-12-08T23:20:37.817Z,93408.22
2022-12-08T23:23:05.437Z,93404.78
2022-12-08T23:25:33.079Z,93408.03
2022-12-08T23:28:00.773Z,93400.34
2022-12-08T23:30:27.374Z,93395.63
2022-12-08T23:32:54.758Z,93392.19
2022-12-08T23:35:22.334Z,93401.03
2022-12-08T23:37:49.892Z,93391.38
2022-12-08T23:40:17.691Z,93383.22
2022-12-08T23:42:45.069Z,93384.84
2022-12-08T23:45:12.954Z,93383.38
2022-12-08T23:47:41.442Z,93387.75
2022-12-08T23:50:09.054Z,93387.44
2022-12-08T23:52:39.250Z,93371.31
2022-12-08T23:55:07.079Z,93369.84
2022-12-08T23:57:34.708Z,93370.47
